createdAt,value
2023-02-13T00:01:06.626Z,43.10
2023-02-13T00:03:36.057Z,43.10
2023-02-13T00:06:04.176Z,43.20
2023-02-13T00:08:32.216Z,43.20
2023-02-13T00:11:00.361Z,43.30
2023-02-13T00:13:28.512Z,43.30
2023-02-13T00:15:58.103Z,43.40
2023-02-13T00:18:26.257Z,43.40
2023-02-13T00:21:04.236Z,43.50
2023-02-13T00:23:33.663Z,43.60
2023-02-13T00:26:05.832Z,43.60
2023-02-13T00:28:33.959Z,43.70
2023-02-13T00:31:07.092Z,43.60
2023-02-13T00:33:35.783Z,43.60
2023-02-13T00:36:07.919Z,43.70
2023-02-13T00:38:36.668Z,43.80
2023-02-13T00:41:04.994Z,43.90
2023-02-13T00:43:33.890Z,43.90
2023-02-13T00:46:02.171Z,43.80
2023-02-13T00:48:32.238Z,43.90
2023-02-13T00:51:00.534Z,44.10
2023-02-13T00:53:30.073Z,44.10
2023-02-13T00:55:58.473Z,44.20
2023-02-13T00:58:27.032Z,44.30
2023-02-13T01:00:56.545Z,44.20
2023-02-13T01:03:25.098Z,44.30
2023-02-13T01:05:53.508Z,44.30
2023-02-13T01:08:21.733Z,44.30
2023-02-13T01:10:51.613Z,44.30
2023-02-13T01:13:19.878Z,44.40
2023-02-13T01:15:48.897Z,44.50
2023-02-13T01:18:18.767Z,44.60
2023-02-13T01:20:56.486Z,44.70
2023-02-13T01:23:24.729Z,44.70
2023-02-13T01:25:54.203Z,44.80
2023-02-13T01:28:22.280Z,44.80
2023-02-13T01:30:55.308Z,44.90
2023-02-13T01:33:23.811Z,44.90
2023-02-13T01:35:52.547Z,45.10
2023-02-13T01:38:20.795Z,45.10
2023-02-13T01:40:49.806Z,45.10
2023-02-13T01:43:19.869Z,45.10
2023-02-13T01:45:51.381Z,45.10
2023-02-13T01:48:22.312Z,45.10
2023-02-13T01:50:53.351Z,45.10
2023-02-13T01:53:28.366Z,45.20
2023-02-13T01:55:59.726Z,45.20
2023-02-13T01:58:33.664Z,45.20
2023-02-13T02:01:03.100Z,45.20
2023-02-13T02:03:36.310Z,45.80
2023-02-13T02:06:06.090Z,45.20
2023-02-13T02:08:36.372Z,45.20
2023-02-13T02:11:11.694Z,45.20
2023-02-13T02:13:41.456Z,45.20
2023-02-13T02:16:09.661Z,45.20
2023-02-13T02:18:37.751Z,45.20
2023-02-13T02:21:43.665Z,45.20
2023-02-13T02:24:29.926Z,45.20
2023-02-13T02:27:36.923Z,45.20
2023-02-13T02:30:38.107Z,45.10
2023-02-13T02:33:19.776Z,45.10
2023-02-13T02:36:01.173Z,45.10
2023-02-13T02:38:42.585Z,45.10
2023-02-13T02:41:36.215Z,45.10
2023-02-13T02:44:17.482Z,45.10
2023-02-13T02:47:11.949Z,45.10
2023-02-13T02:49:59.751Z,45.10
2023-02-13T02:52:41.721Z,45.10
2023-02-13T02:55:18.376Z,45.10
2023-02-13T02:58:08.704Z,45.10
2023-02-13T03:00:58.346Z,45.10
2023-02-13T03:03:45.835Z,45.60
2023-02-13T03:06:19.958Z,45.00
2023-02-13T03:09:11.270Z,45.00
2023-02-13T03:11:57.912Z,45.10
2023-02-13T03:14:28.564Z,45.10
2023-02-13T03:17:16.623Z,45.10
2023-02-13T03:20:13.741Z,45.10
2023-02-13T03:22:54.271Z,45.10
2023-02-13T03:25:34.330Z,45.10
2023-02-13T03:28:30.298Z,45.20
2023-02-13T03:31:05.099Z,45.20
2023-02-13T03:33:57.139Z,45.10
2023-02-13T03:36:52.346Z,45.20
2023-02-13T03:39:25.130Z,45.20
2023-02-13T03:41:59.020Z,45.20
2023-02-13T03:44:31.446Z,45.20
2023-02-13T03:47:02.576Z,45.20
2023-02-13T03:49:52.068Z,45.30
2023-02-13T03:52:25.835Z,45.30
2023-02-13T03:55:15.833Z,45.30
2023-02-13T03:58:03.219Z,45.40
2023-02-13T04:00:40.702Z,45.30
2023-02-13T04:03:15.423Z,45.50
2023-02-13T04:05:48.195Z,45.40
2023-02-13T04:08:16.592Z,45.50
2023-02-13T04:10:53.302Z,45.50
2023-02-13T04:13:29.107Z,45.50
2023-02-13T04:16:02.538Z,45.60
2023-02-13T04:18:32.965Z,45.60
2023-02-13T04:21:03.954Z,45.60
2023-02-13T04:23:31.995Z,45.70
2023-02-13T04:26:03.504Z,45.70
2023-02-13T04:28:31.627Z,45.80
2023-02-13T04:31:00.344Z,45.70
2023-02-13T04:33:28.669Z,45.80
2023-02-13T04:35:56.897Z,45.80
2023-02-13T04:38:25.110Z,46.40
2023-02-13T04:40:53.153Z,45.80
2023-02-13T04:43:22.921Z,45.80
2023-02-13T04:45:51.327Z,45.90
2023-02-13T04:48:19.488Z,45.90
2023-02-13T04:50:48.026Z,45.90
2023-02-13T04:53:16.085Z,46.00
2023-02-13T04:55:44.394Z,46.00
2023-02-13T04:58:12.540Z,45.90
2023-02-13T05:00:42.118Z,46.00
2023-02-13T05:03:12.532Z,46.00
2023-02-13T05:05:41.232Z,46.00
2023-02-13T05:08:10.200Z,46.00
2023-02-13T05:10:38.630Z,46.10
2023-02-13T05:13:06.859Z,46.10
2023-02-13T05:15:35.127Z,46.10
2023-02-13T05:18:04.662Z,46.10
2023-02-13T05:20:32.759Z,46.10
2023-02-13T05:23:18.072Z,46.10
2023-02-13T05:25:46.163Z,46.20
2023-02-13T05:28:28.156Z,46.10
2023-02-13T05:30:56.665Z,46.20
2023-02-13T05:33:26.526Z,46.20
2023-02-13T05:35:54.667Z,46.20
2023-02-13T05:38:22.680Z,46.30
2023-02-13T05:40:50.736Z,46.20
2023-02-13T05:43:18.783Z,46.30
2023-02-13T05:45:46.908Z,46.30
2023-02-13T05:48:14.985Z,46.30
2023-02-13T05:50:44.532Z,46.30
2023-02-13T05:53:12.562Z,46.40
2023-02-13T05:55:40.961Z,46.40
2023-02-13T05:58:09.531Z,46.90
2023-02-13T06:00:37.651Z,46.40
2023-02-13T06:03:05.784Z,46.40
2023-02-13T06:05:33.878Z,46.40
2023-02-13T06:08:03.339Z,46.50
2023-02-13T06:10:31.513Z,46.40
2023-02-13T06:12:59.566Z,46.50
2023-02-13T06:15:27.659Z,46.50
2023-02-13T06:17:55.763Z,46.60
2023-02-13T06:20:24.202Z,46.60
2023-02-13T06:22:52.591Z,46.70
2023-02-13T06:25:22.472Z,46.60
2023-02-13T06:27:50.604Z,46.70
2023-02-13T06:30:19.920Z,46.70
2023-02-13T06:32:49.109Z,46.80
2023-02-13T06:35:17.460Z,46.80
2023-02-13T06:37:45.924Z,46.80
2023-02-13T06:40:15.733Z,46.80
2023-02-13T06:42:46.000Z,46.90
2023-02-13T06:45:14.488Z,46.90
2023-02-13T06:47:43.670Z,46.80
2023-02-13T06:50:13.692Z,46.90
2023-02-13T06:52:46.265Z,47.00
2023-02-13T06:55:14.559Z,46.90
2023-02-13T06:57:44.452Z,46.90
2023-02-13T07:00:15.032Z,46.90
2023-02-13T07:02:43.935Z,47.00
2023-02-13T07:07:42.833Z,46.40
2023-02-13T07:10:13.524Z,47.00
2023-02-13T07:12:41.620Z,47.00
2023-02-13T07:15:11.750Z,47.00
2023-02-13T07:17:39.777Z,47.00
2023-02-13T07:20:10.434Z,47.10
2023-02-13T07:22:38.558Z,47.10
2023-02-13T07:25:07.193Z,47.20
2023-02-13T07:27:35.322Z,47.20
2023-02-13T07:30:03.392Z,47.30
2023-02-13T07:32:32.832Z,47.30
2023-02-13T07:35:02.322Z,47.40
2023-02-13T07:37:31.189Z,47.40
2023-02-13T07:39:59.360Z,47.20
2023-02-13T07:42:27.562Z,47.30
2023-02-13T07:44:55.658Z,47.40
2023-02-13T07:47:23.778Z,47.40
2023-02-13T07:49:54.815Z,47.40
2023-02-13T07:52:22.909Z,47.40
2023-02-13T07:54:51.445Z,47.40
2023-02-13T07:57:19.561Z,47.40
2023-02-13T07:59:47.616Z,47.40
2023-02-13T08:02:16.746Z,47.40
2023-02-13T08:04:46.522Z,47.50
2023-02-13T08:07:17.560Z,47.40
2023-02-13T08:10:04.117Z,47.30
2023-02-13T08:12:34.180Z,47.30
2023-02-13T08:15:02.383Z,47.20
2023-02-13T08:17:30.402Z,47.20
2023-02-13T08:19:58.777Z,47.20
2023-02-13T08:22:28.228Z,47.10
2023-02-13T08:24:56.340Z,47.20
2023-02-13T08:27:24.384Z,47.10
2023-02-13T08:29:52.562Z,47.00
2023-02-13T08:32:21.441Z,47.00
2023-02-13T08:34:49.570Z,46.90
2023-02-13T08:37:17.936Z,46.80
2023-02-13T08:39:47.352Z,46.80
2023-02-13T08:42:16.290Z,46.60
2023-02-13T08:44:44.644Z,46.50
2023-02-13T08:47:12.739Z,46.40
2023-02-13T08:49:40.847Z,46.30
2023-02-13T08:52:08.928Z,46.20
2023-02-13T08:54:37.075Z,46.10
2023-02-13T08:57:06.566Z,46.20
2023-02-13T08:59:34.573Z,46.20
2023-02-13T09:02:02.638Z,46.10
2023-02-13T09:04:30.966Z,46.10
2023-02-13T09:06:59.062Z,46.10
2023-02-13T09:09:27.125Z,46.00
2023-02-13T09:11:57.811Z,45.90
2023-02-13T09:14:27.230Z,45.90
2023-02-13T09:16:55.423Z,45.90
2023-02-13T09:19:23.689Z,45.90
2023-02-13T09:21:51.762Z,45.80
2023-02-13T09:24:19.806Z,45.80
2023-02-13T09:26:47.997Z,45.80
2023-02-13T09:29:16.290Z,45.70
2023-02-13T09:31:45.849Z,45.70
2023-02-13T09:34:13.935Z,45.70
2023-02-13T09:36:42.027Z,45.70
2023-02-13T09:39:10.930Z,45.60
2023-02-13T09:41:42.483Z,45.60
2023-02-13T09:44:33.800Z,45.60
2023-02-13T09:47:06.623Z,45.50
2023-02-13T09:49:41.320Z,46.00
2023-02-13T09:52:10.807Z,45.30
2023-02-13T09:54:38.863Z,45.30
2023-02-13T09:57:15.641Z,44.50
2023-02-13T09:59:58.140Z,44.30
2023-02-13T10:02:49.434Z,44.30
2023-02-13T10:05:37.036Z,44.70
2023-02-13T10:08:13.446Z,43.90
2023-02-13T10:10:51.177Z,43.80
2023-02-13T10:13:31.240Z,43.60
2023-02-13T10:16:07.564Z,43.60
2023-02-13T10:18:49.175Z,43.50
2023-02-13T10:21:22.835Z,43.50
2023-02-13T10:23:56.062Z,43.30
2023-02-13T10:26:42.439Z,43.10
2023-02-13T10:29:34.103Z,43.10
2023-02-13T10:32:07.186Z,43.00
2023-02-13T10:34:41.505Z,42.80
2023-02-13T10:37:15.790Z,42.60
2023-02-13T10:39:46.328Z,42.40
2023-02-13T10:42:23.845Z,42.40
2023-02-13T10:45:03.390Z,42.00
2023-02-13T10:47:43.067Z,41.90
2023-02-13T10:50:23.888Z,41.60
2023-02-13T10:52:58.277Z,41.30
2023-02-13T10:55:54.220Z,41.20
2023-02-13T10:58:27.478Z,41.10
2023-02-13T11:00:59.848Z,41.00
2023-02-13T11:03:29.655Z,41.10
2023-02-13T11:06:02.322Z,40.80
2023-02-13T11:08:34.745Z,40.60
2023-02-13T11:11:03.004Z,40.50
2023-02-13T11:13:31.802Z,40.40
2023-02-13T11:16:03.803Z,40.20
2023-02-13T11:18:34.971Z,40.00
2023-02-13T11:21:09.845Z,39.70
2023-02-13T11:23:45.121Z,39.30
2023-02-13T11:26:16.558Z,39.30
2023-02-13T11:28:51.913Z,39.40
2023-02-13T11:31:29.836Z,39.00
2023-02-13T11:33:59.403Z,38.80
2023-02-13T11:36:31.122Z,38.80
2023-02-13T11:39:00.933Z,38.70
2023-02-13T11:41:31.116Z,38.70
2023-02-13T11:44:02.350Z,38.60
2023-02-13T11:46:43.977Z,38.60
2023-02-13T11:49:20.073Z,38.50
2023-02-13T11:51:51.200Z,38.30
2023-02-13T11:54:25.546Z,38.20
2023-02-13T11:57:10.868Z,38.10
2023-02-13T11:59:42.432Z,38.10
2023-02-13T12:02:17.659Z,38.10
2023-02-13T12:04:46.282Z,37.70
2023-02-13T12:07:20.363Z,37.60
2023-02-13T12:09:52.376Z,37.50
2023-02-13T12:12:27.147Z,37.50
2023-02-13T12:14:56.782Z,37.50
2023-02-13T12:20:01.212Z,36.50
2023-02-13T12:22:43.403Z,36.90
2023-02-13T12:28:19.218Z,35.50
2023-02-13T12:31:15.467Z,35.20
2023-02-13T12:34:26.542Z,33.20
2023-02-13T12:37:07.799Z,33.40
2023-02-13T12:39:40.265Z,33.00
2023-02-13T12:42:32.731Z,31.80
2023-02-13T12:45:16.923Z,31.30
2023-02-13T12:48:01.947Z,30.80
2023-02-13T12:50:38.526Z,30.20
2023-02-13T12:53:23.869Z,29.70
2023-02-13T12:58:44.769Z,28.30
2023-02-13T13:01:24.139Z,28.40
2023-02-13T13:04:02.541Z,27.50
2023-02-13T13:06:44.873Z,27.30
2023-02-13T13:09:40.709Z,27.60
2023-02-13T13:12:21.175Z,27.10
2023-02-13T13:14:55.479Z,27.00
2023-02-13T13:17:38.872Z,26.80
2023-02-13T13:20:36.464Z,26.40
2023-02-13T13:23:09.814Z,26.00
2023-02-13T13:25:46.337Z,26.10
2023-02-13T13:28:22.055Z,26.30
2023-02-13T13:30:50.874Z,25.60
2023-02-13T13:33:20.937Z,25.60
2023-02-13T13:35:56.672Z,25.40
2023-02-13T13:38:31.928Z,25.20
2023-02-13T13:41:07.089Z,25.20
2023-02-13T13:43:45.114Z,25.20
2023-02-13T13:46:19.716Z,25.30
2023-02-13T13:49:07.214Z,25.40
2023-02-13T13:51:35.301Z,25.50
2023-02-13T13:54:36.855Z,25.80
2023-02-13T13:57:12.774Z,25.90
2023-02-13T14:00:28.696Z,26.20
2023-02-13T14:03:26.219Z,26.30
2023-02-13T14:06:04.669Z,26.40
2023-02-13T14:09:29.282Z,26.60
2023-02-13T14:14:53.862Z,26.60
2023-02-13T14:17:56.624Z,27.20
2023-02-13T14:20:37.537Z,27.20
2023-02-13T14:23:35.788Z,27.40
2023-02-13T14:26:20.060Z,27.50
2023-02-13T14:29:03.881Z,27.60
2023-02-13T14:31:35.529Z,27.80
2023-02-13T14:34:06.496Z,28.00
2023-02-13T14:36:37.861Z,28.20
2023-02-13T14:39:17.482Z,28.20
2023-02-13T14:41:57.698Z,28.30
2023-02-13T14:44:31.494Z,28.40
2023-02-13T14:47:01.208Z,28.40
2023-02-13T14:49:31.606Z,28.40
2023-02-13T14:52:04.127Z,28.50
2023-02-13T14:57:10.124Z,28.30
2023-02-13T14:59:44.215Z,28.90
2023-02-13T15:02:22.167Z,29.10
2023-02-13T15:04:55.030Z,29.20
2023-02-13T15:07:28.899Z,29.30
2023-02-13T15:10:01.320Z,29.30
2023-02-13T15:12:32.176Z,29.20
2023-02-13T15:15:02.385Z,29.10
2023-02-13T15:17:32.844Z,29.00
2023-02-13T15:20:09.832Z,29.10
2023-02-13T15:22:42.714Z,29.30
2023-02-13T15:25:24.331Z,29.40
2023-02-13T15:27:55.258Z,29.70
2023-02-13T15:30:26.286Z,29.80
2023-02-13T15:32:58.850Z,29.80
2023-02-13T15:35:29.315Z,29.60
2023-02-13T15:37:59.285Z,29.20
2023-02-13T15:40:29.637Z,28.90
2023-02-13T15:42:58.661Z,28.90
2023-02-13T15:45:28.898Z,28.90
2023-02-13T15:47:59.075Z,29.00
2023-02-13T15:50:32.582Z,29.20
2023-02-13T15:53:05.801Z,29.40
2023-02-13T15:58:05.282Z,29.20
2023-02-13T16:00:36.447Z,29.80
2023-02-13T16:03:07.946Z,29.80
2023-02-13T16:05:41.507Z,30.00
2023-02-13T16:08:35.359Z,30.10
2023-02-13T16:11:26.062Z,30.40
2023-02-13T16:14:03.628Z,30.60
2023-02-13T16:16:35.850Z,30.80
2023-02-13T16:19:21.227Z,30.80
2023-02-13T16:22:13.242Z,31.00
2023-02-13T16:24:53.977Z,31.20
2023-02-13T16:27:38.705Z,31.40
2023-02-13T16:30:24.414Z,31.60
2023-02-13T16:33:26.106Z,31.70
2023-02-13T16:36:28.768Z,32.00
2023-02-13T16:39:15.872Z,32.00
2023-02-13T16:41:49.548Z,32.10
2023-02-13T16:44:36.756Z,32.40
2023-02-13T16:47:39.031Z,32.60
2023-02-13T16:50:30.597Z,32.90
2023-02-13T16:53:17.774Z,33.10
2023-02-13T16:56:03.350Z,33.30
2023-02-13T16:58:39.582Z,33.40
2023-02-13T17:01:07.840Z,33.60
2023-02-13T17:03:35.892Z,33.80
2023-02-13T17:06:04.659Z,34.00
2023-02-13T17:08:33.039Z,34.20
2023-02-13T17:11:06.077Z,34.30
2023-02-13T17:13:35.954Z,34.40
2023-02-13T17:16:04.098Z,34.70
2023-02-13T17:18:32.170Z,34.80
2023-02-13T17:21:01.355Z,34.90
2023-02-13T17:23:29.662Z,35.00
2023-02-13T17:25:58.493Z,35.10
2023-02-13T17:28:30.261Z,35.30
2023-02-13T17:31:01.681Z,35.40
2023-02-13T17:33:31.585Z,35.50
2023-02-13T17:35:59.648Z,35.60
2023-02-13T17:38:27.796Z,35.70
2023-02-13T17:40:56.291Z,35.50
2023-02-13T17:43:25.333Z,36.00
2023-02-13T17:45:53.429Z,36.10
2023-02-13T17:48:24.033Z,36.20
2023-02-13T17:50:52.654Z,36.30
2023-02-13T17:53:24.950Z,36.40
2023-02-13T17:55:53.326Z,36.60
2023-02-13T17:58:21.392Z,36.80
2023-02-13T18:00:49.672Z,36.80
2023-02-13T18:03:17.737Z,36.90
2023-02-13T18:05:49.099Z,37.10
2023-02-13T18:08:17.985Z,37.20
2023-02-13T18:10:46.098Z,37.30
2023-02-13T18:13:14.506Z,38.30
2023-02-13T18:15:44.698Z,38.40
2023-02-13T18:18:15.147Z,38.50
2023-02-13T18:20:43.402Z,38.60
2023-02-13T18:23:13.967Z,38.80
2023-02-13T18:25:42.168Z,38.50
2023-02-13T18:28:10.182Z,39.00
2023-02-13T18:30:38.291Z,39.10
2023-02-13T18:35:36.567Z,38.80
2023-02-13T18:38:04.675Z,39.50
2023-02-13T18:40:34.167Z,39.60
2023-02-13T18:43:02.219Z,39.70
2023-02-13T18:45:30.747Z,39.70
2023-02-13T18:47:58.775Z,39.80
2023-02-13T18:50:26.882Z,39.90
2023-02-13T18:52:55.097Z,40.00
2023-02-13T18:55:23.257Z,40.10
2023-02-13T18:57:54.579Z,40.10
2023-02-13T19:00:23.581Z,40.20
2023-02-13T19:02:51.741Z,40.40
2023-02-13T19:05:20.343Z,40.40
2023-02-13T19:07:48.421Z,40.50
2023-02-13T19:10:16.639Z,40.60
2023-02-13T19:12:44.690Z,40.70
2023-02-13T19:15:14.200Z,40.80
2023-02-13T19:17:42.277Z,40.90
2023-02-13T19:20:11.191Z,41.00
2023-02-13T19:22:39.346Z,41.10
2023-02-13T19:25:07.842Z,41.10
2023-02-13T19:27:38.580Z,41.20
2023-02-13T19:30:09.511Z,41.30
2023-02-13T19:32:39.082Z,41.50
2023-02-13T19:35:07.853Z,41.50
2023-02-13T19:37:43.712Z,41.60
2023-02-13T19:40:14.235Z,41.60
2023-02-13T19:42:42.274Z,41.70
2023-02-13T19:45:11.395Z,41.80
2023-02-13T19:47:40.807Z,41.90
2023-02-13T19:50:09.800Z,42.00
2023-02-13T19:52:38.068Z,42.00
2023-02-13T19:55:06.623Z,42.10
2023-02-13T19:57:34.903Z,42.20
2023-02-13T20:00:04.705Z,42.20
2023-02-13T20:02:32.771Z,42.30
2023-02-13T20:05:06.959Z,42.40
2023-02-13T20:07:35.066Z,42.40
2023-02-13T20:10:03.218Z,42.50
2023-02-13T20:12:31.259Z,42.60
2023-02-13T20:14:59.361Z,42.60
2023-02-13T20:17:27.425Z,42.70
2023-02-13T20:19:55.904Z,42.80
2023-02-13T20:22:25.338Z,42.90
2023-02-13T20:24:53.460Z,43.00
2023-02-13T20:27:21.581Z,43.10
2023-02-13T20:29:50.219Z,43.10
2023-02-13T20:32:19.495Z,43.10
2023-02-13T20:34:59.647Z,43.20
2023-02-13T20:37:29.371Z,43.30
2023-02-13T20:39:57.416Z,43.20
2023-02-13T20:42:25.773Z,43.40
2023-02-13T20:44:53.804Z,43.50
2023-02-13T20:47:21.906Z,43.50
2023-02-13T20:49:49.929Z,43.60
2023-02-13T20:52:18.022Z,43.70
2023-02-13T20:54:47.784Z,43.70
2023-02-13T20:57:16.047Z,43.80
2023-02-13T20:59:44.827Z,43.80
2023-02-13T21:02:13.622Z,43.80
2023-02-13T21:04:41.711Z,43.90
2023-02-13T21:07:10.147Z,44.00
2023-02-13T21:09:38.321Z,44.00
2023-02-13T21:12:08.034Z,44.00
2023-02-13T21:14:36.247Z,44.10
2023-02-13T21:17:04.406Z,44.20
2023-02-13T21:19:32.444Z,44.20
2023-02-13T21:22:11.156Z,44.30
2023-02-13T21:24:41.395Z,44.30
2023-02-13T21:27:11.739Z,44.40
2023-02-13T21:29:40.030Z,44.50
2023-02-13T21:32:08.136Z,44.40
2023-02-13T21:34:36.298Z,44.40
2023-02-13T21:37:04.374Z,44.50
2023-02-13T21:39:32.457Z,44.50
2023-02-13T21:42:00.669Z,44.70
2023-02-13T21:44:30.084Z,44.70
2023-02-13T21:46:58.181Z,44.80
2023-02-13T21:49:26.363Z,44.80
2023-02-13T21:51:54.404Z,45.40
2023-02-13T21:54:22.477Z,44.80
2023-02-13T21:56:50.579Z,44.90
2023-02-13T21:59:18.862Z,45.00
2023-02-13T22:01:51.148Z,45.00
2023-02-13T22:04:19.626Z,45.10
2023-02-13T22:06:50.940Z,45.10
2023-02-13T22:09:20.477Z,45.10
2023-02-13T22:11:50.445Z,45.10
2023-02-13T22:14:19.777Z,45.20
2023-02-13T22:16:51.948Z,45.20
2023-02-13T22:19:20.580Z,45.20
2023-02-13T22:21:48.852Z,45.30
2023-02-13T22:24:17.020Z,45.30
2023-02-13T22:26:46.272Z,45.40
2023-02-13T22:29:16.326Z,45.40
2023-02-13T22:31:44.771Z,45.50
2023-02-13T22:34:14.822Z,45.50
2023-02-13T22:36:43.072Z,45.60
2023-02-13T22:39:12.592Z,45.60
2023-02-13T22:41:41.090Z,45.60
2023-02-13T22:44:09.179Z,45.70
2023-02-13T22:46:37.287Z,45.70
2023-02-13T22:49:05.430Z,45.80
2023-02-13T22:51:36.763Z,45.80
2023-02-13T22:54:05.237Z,45.80
2023-02-13T22:56:34.127Z,45.90
2023-02-13T22:59:02.324Z,45.90
2023-02-13T23:01:30.902Z,46.00
2023-02-13T23:03:59.248Z,46.10
2023-02-13T23:06:28.530Z,46.00
2023-02-13T23:08:58.394Z,46.10
2023-02-13T23:11:45.831Z,46.20
2023-02-13T23:14:14.645Z,46.20
2023-02-13T23:17:01.154Z,46.20
2023-02-13T23:19:30.651Z,46.20
2023-02-13T23:21:58.849Z,46.10
2023-02-13T23:24:28.836Z,46.20
2023-02-13T23:26:56.940Z,46.30
2023-02-13T23:29:25.098Z,46.30
2023-02-13T23:31:53.404Z,46.40
2023-02-13T23:34:21.568Z,46.40
2023-02-13T23:36:49.821Z,46.50
2023-02-13T23:39:17.896Z,46.50
2023-02-13T23:41:47.364Z,46.60
2023-02-13T23:44:15.407Z,46.50
2023-02-13T23:46:43.504Z,46.60
2023-02-13T23:49:11.636Z,46.70
2023-02-13T23:51:39.774Z,46.70
2023-02-13T23:54:07.816Z,46.80
2023-02-13T23:56:35.900Z,46.80
2023-02-13T23:59:05.295Z,46.80
